Time;durP1;ratioP1;P1;durP2;ratioP2;P2;SDS_P1;SDS_P2;PMS_P1;PMS_P2;Temp;Humidity;BMP_temperature;BMP_pressure;BME280_temperature;BME280_humidity;BME280_pressure;Samples;Min_cycle;Max_cycle;Signal;HPM_P1;HPM_P2
2021/03/06 00:02:23;;;;;;;5.87;4.10;;;2.40;93.30;;;;;;5114813;27;20179;-51
2021/03/06 00:04:48;;;;;;;4.30;3.50;;;2.50;93.30;;;;;;5114118;27;20183;-52
2021/03/06 00:07:14;;;;;;;4.80;3.40;;;2.40;93.10;;;;;;5114077;27;20202;-51
2021/03/06 00:09:39;;;;;;;4.20;3.80;;;2.20;92.80;;;;;;5114260;27;20199;-52
2021/03/06 00:12:05;;;;;;;10.30;6.07;;;2.50;93.30;;;;;;5114090;27;20173;-51
2021/03/06 00:14:32;;;;;;;4.57;3.53;;;2.00;92.90;;;;;;5118073;27;20195;-51
2021/03/06 00:16:58;;;;;;;4.95;4.00;;;2.40;93.40;;;;;;5114179;27;20494;-52
2021/03/06 00:19:24;;;;;;;4.45;3.80;;;2.20;93.40;;;;;;5114059;27;20175;-51
2021/03/06 00:21:50;;;;;;;4.05;3.65;;;2.40;94.10;;;;;;5113947;27;20186;-51
2021/03/06 00:24:15;;;;;;;3.73;3.33;;;2.50;94.10;;;;;;5114096;27;20659;-52
2021/03/06 00:26:41;;;;;;;6.00;3.87;;;2.20;94.30;;;;;;5113931;27;21017;-52
2021/03/06 00:29:07;;;;;;;7.03;4.30;;;2.20;94.30;;;;;;5113449;27;20179;-51
2021/03/06 00:31:35;;;;;;;3.30;2.97;;;2.20;93.80;;;;;;5118483;27;20186;-51
2021/03/06 00:34:01;;;;;;;3.28;2.92;;;2.20;94.90;;;;;;5133861;27;20183;-52
2021/03/06 00:36:26;;;;;;;4.40;3.73;;;2.10;95.20;;;;;;5113968;27;20236;-52
2021/03/06 00:38:52;;;;;;;3.77;3.10;;;2.20;94.70;;;;;;5114009;27;20182;-51
2021/03/06 00:41:18;;;;;;;5.43;3.90;;;2.40;94.80;;;;;;5132060;27;20679;-51
2021/03/06 00:43:43;;;;;;;5.40;3.90;;;2.10;93.90;;;;;;5113504;27;20545;-51
2021/03/06 00:46:09;;;;;;;6.67;4.00;;;2.10;95.10;;;;;;5113670;27;20647;-51
2021/03/06 00:48:34;;;;;;;4.63;3.33;;;2.20;93.70;;;;;;5113659;27;20182;-51
2021/03/06 00:51:00;;;;;;;5.03;3.77;;;2.30;93.40;;;;;;5109939;28;20551;-51
2021/03/06 00:53:26;;;;;;;4.10;3.50;;;2.40;92.50;;;;;;5113731;27;20187;-51
2021/03/06 00:55:51;;;;;;;4.03;3.63;;;2.10;92.40;;;;;;5113255;27;20800;-51
2021/03/06 00:58:17;;;;;;;3.83;3.47;;;2.40;93.20;;;;;;5112919;27;20199;-52
2021/03/06 01:00:42;;;;;;;4.10;3.70;;;2.20;93.60;;;;;;5113156;27;20186;-51
2021/03/06 01:03:09;;;;;;;6.60;4.03;;;2.40;94.40;;;;;;5112307;27;20500;-51
2021/03/06 01:05:35;;;;;;;5.35;4.10;;;2.50;95.00;;;;;;5114078;27;20216;-51
2021/03/06 01:08:00;;;;;;;5.10;3.93;;;2.10;93.70;;;;;;5113084;27;20211;-51
2021/03/06 01:10:33;;;;;;;3.93;3.50;;;2.10;94.60;;;;;;5113110;27;20965;-51
2021/03/06 01:12:59;;;;;;;5.38;4.85;;;2.10;95.20;;;;;;5119508;27;20656;-52
2021/03/06 01:15:25;;;;;;;4.90;3.30;;;1.80;95.70;;;;;;5113078;27;20201;-51
2021/03/06 01:17:50;;;;;;;5.00;4.20;;;1.90;96.00;;;;;;5108209;27;20230;-51
2021/03/06 01:20:16;;;;;;;4.83;4.33;;;2.00;95.60;;;;;;5113129;27;20598;-51
2021/03/06 01:22:42;;;;;;;5.00;3.60;;;2.20;95.60;;;;;;5112520;27;20262;-51
2021/03/06 01:25:09;;;;;;;5.30;4.00;;;2.10;95.80;;;;;;5113000;27;20798;-51
2021/03/06 01:27:35;;;;;;;6.20;4.25;;;2.30;95.70;;;;;;5112668;27;20293;-52
2021/03/06 01:30:00;;;;;;;4.37;3.97;;;2.30;95.40;;;;;;5112918;27;20278;-51
2021/03/06 01:32:27;;;;;;;4.90;3.40;;;2.00;95.00;;;;;;5130935;27;20437;-51
2021/03/06 01:34:53;;;;;;;4.95;3.67;;;1.80;94.90;;;;;;5112733;27;20191;-51
2021/03/06 01:37:18;;;;;;;4.53;4.13;;;1.90;95.50;;;;;;5112416;27;20218;-51
2021/03/06 01:39:44;;;;;;;5.43;4.30;;;2.00;95.60;;;;;;5112836;27;20666;-51
2021/03/06 01:42:10;;;;;;;4.07;3.67;;;2.00;95.40;;;;;;5112727;27;20186;-51
2021/03/06 01:44:36;;;;;;;4.60;4.20;;;1.90;95.10;;;;;;5112563;27;20182;-52
2021/03/06 01:47:01;;;;;;;5.97;4.70;;;1.80;94.40;;;;;;5112273;27;20448;-51
2021/03/06 01:49:30;;;;;;;5.00;4.03;;;2.10;94.90;;;;;;5113525;27;20208;-51
2021/03/06 01:51:57;;;;;;;7.30;4.00;;;1.90;94.70;;;;;;5112807;27;20428;-51
2021/03/06 01:54:25;;;;;;;5.63;4.60;;;1.80;94.60;;;;;;5113992;27;20242;-52
2021/03/06 01:56:52;;;;;;;4.80;3.90;;;1.70;94.70;;;;;;5119919;27;20310;-51
2021/03/06 01:59:19;;;;;;;4.50;4.00;;;1.80;95.30;;;;;;5112488;27;20183;-51
2021/03/06 02:01:44;;;;;;;4.10;3.70;;;1.30;95.70;;;;;;5112385;27;20189;-51
2021/03/06 02:04:10;;;;;;;7.07;4.00;;;1.40;96.40;;;;;;5112459;27;20191;-51
2021/03/06 02:06:45;;;;;;;5.50;4.10;;;1.20;96.60;;;;;;5112280;27;20210;-51
2021/03/06 02:09:10;;;;;;;6.03;4.30;;;1.10;96.70;;;;;;5111655;27;20186;-50
2021/03/06 02:11:55;;;;;;;8.33;4.63;;;1.20;97.70;;;;;;5111267;27;20186;-51
2021/03/06 02:14:42;;;;;;;6.78;4.35;;;1.20;98.20;;;;;;5106561;27;20651;-51
2021/03/06 02:17:21;;;;;;;4.90;3.90;;;1.00;97.50;;;;;;5111252;27;20386;-51
2021/03/06 02:20:11;;;;;;;4.90;4.38;;;1.20;97.20;;;;;;5111356;27;20208;-51
2021/03/06 02:22:50;;;;;;;4.43;4.00;;;1.40;97.40;;;;;;5111700;27;20191;-51
2021/03/06 02:25:53;;;;;;;6.88;4.75;;;0.90;97.30;;;;;;5112176;27;20207;-51
2021/03/06 02:28:35;;;;;;;6.20;4.60;;;1.40;98.20;;;;;;5110716;27;20183;-51
2021/03/06 02:31:04;;;;;;;7.15;4.80;;;0.80;98.40;;;;;;5113484;28;20185;-51
2021/03/06 02:33:31;;;;;;;4.63;4.18;;;0.90;97.90;;;;;;5111645;27;20792;-51
2021/03/06 02:36:01;;;;;;;5.47;4.53;;;0.70;97.90;;;;;;5111595;27;20191;-51
2021/03/06 02:38:29;;;;;;;6.28;4.32;;;0.60;98.40;;;;;;5111654;28;20183;-51
2021/03/06 02:40:56;;;;;;;6.22;4.60;;;0.60;98.50;;;;;;5130357;28;20179;-51
2021/03/06 02:43:25;;;;;;;8.00;4.75;;;0.80;98.60;;;;;;5111265;28;20175;-51
2021/03/06 02:45:52;;;;;;;6.22;4.65;;;0.80;98.20;;;;;;5112007;28;20183;-51
2021/03/06 02:48:19;;;;;;;6.78;4.65;;;0.80;98.90;;;;;;5115426;28;20166;-51
2021/03/06 02:50:45;;;;;;;5.25;4.68;;;0.40;99.20;;;;;;5108279;28;20179;-52
2021/03/06 02:53:11;;;;;;;6.30;4.97;;;0.30;99.60;;;;;;5122200;28;20190;-51
2021/03/06 02:55:36;;;;;;;6.10;4.80;;;0.30;99.60;;;;;;5112315;28;20220;-51
2021/03/06 02:58:16;;;;;;;5.70;4.40;;;0.40;99.90;;;;;;5111730;28;20218;-51
2021/03/06 03:00:43;;;;;;;7.68;5.60;;;0.50;99.90;;;;;;5111087;28;20167;-51
2021/03/06 03:03:11;;;;;;;5.68;4.63;;;0.40;99.90;;;;;;5111106;28;20171;-51
2021/03/06 03:05:49;;;;;;;12.13;5.07;;;0.30;99.90;;;;;;5111921;28;20214;-51
2021/03/06 03:08:23;;;;;;;6.50;5.45;;;0.30;99.90;;;;;;5111726;28;20561;-51
2021/03/06 03:10:54;;;;;;;6.50;4.30;;;0.50;99.90;;;;;;5111470;28;20185;-51
2021/03/06 03:13:47;;;;;;;5.50;4.85;;;0.90;99.90;;;;;;5111001;28;20187;-52
2021/03/06 03:16:31;;;;;;;6.05;4.50;;;0.70;99.90;;;;;;5110974;28;20679;-51
2021/03/06 03:19:11;;;;;;;6.10;4.60;;;0.50;99.90;;;;;;5110279;28;20175;-51
2021/03/06 03:21:47;;;;;;;5.70;4.97;;;0.50;99.90;;;;;;5113582;28;20208;-51
2021/03/06 03:24:17;;;;;;;6.47;5.10;;;0.40;99.90;;;;;;5110965;28;20181;-50
2021/03/06 03:26:44;;;;;;;6.03;4.50;;;0.40;99.90;;;;;;5114182;27;20712;-51
2021/03/06 03:29:12;;;;;;;6.47;4.75;;;0.00;99.90;;;;;;5114670;27;20183;-51
2021/03/06 03:31:39;;;;;;;6.85;5.10;;;0.10;99.90;;;;;;5114687;27;20190;-52
2021/03/06 03:34:07;;;;;;;7.90;5.47;;;0.00;99.90;;;;;;5114949;27;20193;-51
2021/03/06 03:36:33;;;;;;;6.45;4.53;;;-0.10;99.90;;;;;;5114876;27;20622;-51
2021/03/06 03:39:00;;;;;;;7.10;5.38;;;0.10;99.90;;;;;;5123577;27;20298;-51
2021/03/06 03:41:26;;;;;;;7.28;5.75;;;0.00;99.90;;;;;;5114568;27;20185;-51
2021/03/06 03:43:52;;;;;;;6.38;4.90;;;0.20;99.90;;;;;;5114870;27;20265;-51
2021/03/06 03:46:18;;;;;;;6.35;5.68;;;-0.10;99.90;;;;;;5114777;27;20256;-51
2021/03/06 03:48:45;;;;;;;5.50;4.90;;;-0.10;99.90;;;;;;5114481;27;20195;-50
2021/03/06 03:51:12;;;;;;;7.85;5.40;;;-0.30;99.90;;;;;;5111145;28;20447;-50
2021/03/06 03:53:39;;;;;;;5.78;4.70;;;0.00;99.90;;;;;;5114308;27;20183;-51
2021/03/06 03:56:07;;;;;;;7.38;5.50;;;-0.20;99.90;;;;;;5114621;27;20677;-51
2021/03/06 03:58:33;;;;;;;6.60;4.47;;;0.00;99.90;;;;;;5114397;27;20224;-51
2021/03/06 04:01:00;;;;;;;6.03;4.73;;;0.10;99.90;;;;;;5114454;27;20188;-51
2021/03/06 04:03:27;;;;;;;5.80;4.93;;;0.10;99.90;;;;;;5114327;27;20429;-51
2021/03/06 04:05:55;;;;;;;6.75;4.45;;;0.30;99.90;;;;;;5114330;27;20643;-51
2021/03/06 04:08:20;;;;;;;5.07;4.47;;;0.00;99.80;;;;;;5114230;27;20567;-51
2021/03/06 04:10:46;;;;;;;7.60;4.93;;;0.30;99.90;;;;;;5114173;27;20193;-51
2021/03/06 04:13:12;;;;;;;6.00;4.70;;;0.30;99.90;;;;;;5114457;27;20207;-51
2021/03/06 04:15:37;;;;;;;5.70;5.07;;;0.30;99.90;;;;;;5114370;27;20519;-51
2021/03/06 04:18:05;;;;;;;6.00;5.10;;;0.20;99.90;;;;;;5113761;27;20209;-51
2021/03/06 04:20:31;;;;;;;4.60;4.10;;;0.10;99.90;;;;;;5113788;27;20288;-51
2021/03/06 04:22:57;;;;;;;6.22;4.82;;;0.20;99.90;;;;;;5114066;27;20183;-51
2021/03/06 04:25:23;;;;;;;5.45;4.93;;;0.10;99.90;;;;;;5114049;27;20427;-51
2021/03/06 04:27:49;;;;;;;9.73;5.27;;;0.10;99.90;;;;;;5114282;27;20701;-51
2021/03/06 04:30:15;;;;;;;7.77;5.53;;;0.00;99.90;;;;;;5114361;27;20459;-51
2021/03/06 04:32:41;;;;;;;5.53;4.40;;;0.20;99.90;;;;;;5113938;27;20185;-51
2021/03/06 04:35:09;;;;;;;6.10;4.53;;;0.10;99.90;;;;;;5132155;27;20193;-50
2021/03/06 04:37:35;;;;;;;7.15;5.75;;;-0.10;99.90;;;;;;5112806;27;20214;-51
2021/03/06 04:40:01;;;;;;;7.00;5.28;;;-0.10;99.90;;;;;;5113476;27;20183;-51
2021/03/06 04:42:27;;;;;;;10.70;6.00;;;-0.20;99.90;;;;;;5113957;27;20554;-51
2021/03/06 04:44:53;;;;;;;6.90;5.20;;;-0.40;99.90;;;;;;5114095;27;20213;-51
2021/03/06 04:47:18;;;;;;;8.60;5.10;;;-0.20;99.90;;;;;;5126757;27;20206;-51
2021/03/06 04:49:44;;;;;;;6.33;4.90;;;-0.20;99.90;;;;;;5114776;27;20924;-51
2021/03/06 04:52:12;;;;;;;7.18;5.22;;;-0.50;99.90;;;;;;5114009;27;20179;-51
2021/03/06 04:54:38;;;;;;;4.97;4.47;;;-0.10;99.90;;;;;;5113699;27;20189;-51
2021/03/06 04:57:04;;;;;;;5.63;5.07;;;-0.30;99.90;;;;;;5113077;27;20220;-50
2021/03/06 04:59:29;;;;;;;7.80;5.43;;;-0.30;99.90;;;;;;5113688;27;20595;-51
2021/03/06 05:01:55;;;;;;;5.33;4.53;;;-0.30;99.90;;;;;;5113247;27;20457;-51
2021/03/06 05:04:21;;;;;;;5.20;4.70;;;-0.20;99.90;;;;;;5131694;27;20534;-51
2021/03/06 05:06:47;;;;;;;5.07;4.43;;;-0.40;99.90;;;;;;5113406;27;20207;-51
2021/03/06 05:09:13;;;;;;;6.10;4.85;;;-0.30;99.70;;;;;;5113213;27;20435;-51
2021/03/06 05:11:39;;;;;;;4.20;3.80;;;-0.10;99.90;;;;;;5112686;27;20246;-51
2021/03/06 05:14:04;;;;;;;5.33;4.57;;;0.00;99.90;;;;;;5112985;27;20199;-51
2021/03/06 05:16:30;;;;;;;5.10;4.60;;;-0.10;99.50;;;;;;5112977;27;20476;-51
2021/03/06 05:18:56;;;;;;;6.68;4.65;;;-0.10;99.20;;;;;;5109104;27;20195;-51
2021/03/06 05:21:22;;;;;;;5.53;5.07;;;-0.10;99.20;;;;;;5119366;27;20273;-51
2021/03/06 05:23:47;;;;;;;8.20;5.30;;;-0.20;99.50;;;;;;5112770;27;20183;-51
2021/03/06 05:26:17;;;;;;;5.67;4.93;;;-0.30;99.90;;;;;;5112915;27;20234;-51
2021/03/06 05:28:42;;;;;;;5.03;4.57;;;-0.10;99.90;;;;;;5112978;27;20274;-51
2021/03/06 05:31:08;;;;;;;6.13;5.47;;;-0.10;99.90;;;;;;5112874;27;20332;-51
2021/03/06 05:33:33;;;;;;;7.37;5.17;;;-0.30;99.90;;;;;;5112619;27;20223;-51
2021/03/06 05:35:59;;;;;;;5.33;4.80;;;-0.20;99.90;;;;;;5112515;27;20175;-51
2021/03/06 05:38:25;;;;;;;6.53;5.80;;;-0.50;99.90;;;;;;5112007;27;20208;-51
2021/03/06 05:40:50;;;;;;;5.53;4.90;;;-0.50;99.90;;;;;;5123871;27;20245;-50
2021/03/06 05:43:16;;;;;;;5.70;5.10;;;-0.40;99.90;;;;;;5104641;27;20183;-51
2021/03/06 05:45:49;;;;;;;7.35;5.25;;;-0.50;99.90;;;;;;5111299;27;20651;-51
2021/03/06 05:48:19;;;;;;;7.88;5.80;;;-0.60;99.90;;;;;;5124711;27;20483;-50
2021/03/06 05:50:46;;;;;;;6.50;4.97;;;-0.60;99.90;;;;;;5130931;27;20171;-50
2021/03/06 05:53:15;;;;;;;6.68;5.60;;;-0.60;99.90;;;;;;5109935;27;20285;-50
2021/03/06 05:55:50;;;;;;;6.10;4.60;;;-1.00;99.90;;;;;;5112058;27;20203;-51
2021/03/06 05:58:19;;;;;;;6.72;5.75;;;-0.40;99.90;;;;;;5105259;27;20207;-51
2021/03/06 06:00:44;;;;;;;6.50;5.00;;;-0.70;99.90;;;;;;5098795;27;20664;-51
2021/03/06 06:03:10;;;;;;;6.50;5.30;;;-0.80;99.90;;;;;;5106212;27;20189;-53
2021/03/06 06:05:36;;;;;;;6.63;4.60;;;-0.70;99.90;;;;;;5118784;27;20514;-51
2021/03/06 06:08:04;;;;;;;8.30;6.00;;;-0.40;99.90;;;;;;5105040;27;20649;-51
2021/03/06 06:10:32;;;;;;;7.25;5.60;;;-0.60;99.90;;;;;;5106364;27;20279;-51
2021/03/06 06:13:00;;;;;;;7.18;5.28;;;-0.40;99.90;;;;;;5105783;27;20644;-50
2021/03/06 06:15:27;;;;;;;7.95;5.05;;;-0.50;99.90;;;;;;5106802;27;20259;-50
2021/03/06 06:17:54;;;;;;;7.03;5.93;;;-1.10;99.90;;;;;;5104049;27;20330;-51
2021/03/06 06:20:22;;;;;;;7.07;5.88;;;-0.60;99.90;;;;;;5105159;27;20186;-51
2021/03/06 06:22:48;;;;;;;7.88;5.95;;;-0.90;99.90;;;;;;5105315;27;20179;-52
2021/03/06 06:25:30;;;;;;;7.87;5.73;;;-0.60;99.90;;;;;;5103579;27;20277;-51
2021/03/06 06:28:00;;;;;;;7.50;5.43;;;-0.60;99.90;;;;;;5106258;27;20484;-50
2021/03/06 06:30:26;;;;;;;7.35;6.10;;;-0.90;99.90;;;;;;5105342;27;20666;-51
2021/03/06 06:32:52;;;;;;;8.35;6.25;;;-0.70;99.90;;;;;;5105504;28;20212;-51
2021/03/06 06:35:18;;;;;;;9.47;5.70;;;-0.50;99.90;;;;;;5103008;27;20244;-50
2021/03/06 06:38:06;;;;;;;5.37;4.87;;;-0.60;99.90;;;;;;5104336;28;20462;-51
2021/03/06 06:40:35;;;;;;;9.20;5.97;;;-0.50;99.90;;;;;;5104787;28;20187;-53
2021/03/06 06:43:21;;;;;;;8.90;5.70;;;-0.60;99.90;;;;;;5120194;27;20645;-51
2021/03/06 06:45:46;;;;;;;6.05;5.25;;;-0.60;99.90;;;;;;5122563;28;20269;-52
2021/03/06 06:48:12;;;;;;;8.37;5.67;;;-0.30;99.90;;;;;;5110058;28;20285;-51
2021/03/06 06:50:38;;;;;;;6.70;5.97;;;-0.20;99.90;;;;;;5105795;28;20183;-51
2021/03/06 06:53:04;;;;;;;6.07;5.20;;;-0.50;99.90;;;;;;5103244;28;20569;-51
2021/03/06 06:55:38;;;;;;;5.90;5.30;;;-0.30;99.90;;;;;;5104275;28;20184;-51
2021/03/06 06:58:04;;;;;;;6.75;5.30;;;-0.40;99.90;;;;;;5103365;28;20473;-50
2021/03/06 07:00:31;;;;;;;5.30;4.80;;;-0.20;99.40;;;;;;5106545;27;20183;-52
2021/03/06 07:02:59;;;;;;;7.35;5.60;;;-0.20;98.60;;;;;;5110066;27;20436;-52
2021/03/06 07:05:30;;;;;;;5.32;4.82;;;0.00;98.60;;;;;;5108498;27;20171;-51
2021/03/06 07:07:57;;;;;;;5.80;4.68;;;0.10;98.30;;;;;;5104842;27;20299;-50
2021/03/06 07:10:23;;;;;;;5.47;4.97;;;0.20;97.60;;;;;;5110120;27;20206;-54
2021/03/06 07:13:01;;;;;;;5.70;5.20;;;0.30;96.90;;;;;;5106123;27;20204;-51
2021/03/06 07:15:29;;;;;;;6.00;5.07;;;0.70;96.40;;;;;;5109866;27;20205;-51
2021/03/06 07:17:57;;;;;;;5.53;4.88;;;0.80;96.00;;;;;;5123422;27;20707;-52
2021/03/06 07:20:23;;;;;;;5.97;5.43;;;0.80;95.80;;;;;;5113631;27;20190;-51
2021/03/06 07:22:50;;;;;;;6.07;4.70;;;0.70;95.40;;;;;;5109073;27;20187;-51
2021/03/06 07:25:16;;;;;;;6.45;4.93;;;0.60;95.40;;;;;;5103127;27;20183;-51
2021/03/06 07:27:42;;;;;;;6.18;5.68;;;0.80;94.60;;;;;;5101576;27;20254;-51
2021/03/06 07:30:10;;;;;;;6.00;5.00;;;0.70;94.70;;;;;;5099511;27;20183;-52
2021/03/06 07:32:46;;;;;;;5.70;4.80;;;1.10;95.00;;;;;;5100607;27;20224;-51
2021/03/06 07:35:14;;;;;;;8.00;5.65;;;1.20;94.60;;;;;;5108941;27;20341;-51
2021/03/06 07:37:41;;;;;;;5.15;4.65;;;1.70;94.00;;;;;;5126122;27;20237;-51
2021/03/06 07:40:09;;;;;;;5.30;4.80;;;2.60;93.50;;;;;;5104879;27;20215;-51
2021/03/06 07:42:44;;;;;;;7.25;4.82;;;2.80;91.90;;;;;;5113440;27;20175;-51
2021/03/06 07:45:22;;;;;;;6.07;5.30;;;2.50;90.70;;;;;;5113658;27;20236;-51
2021/03/06 07:47:54;;;;;;;6.00;4.72;;;3.10;90.70;;;;;;5113394;27;20206;-52
2021/03/06 07:50:25;;;;;;;7.88;5.15;;;3.30;90.80;;;;;;5112968;27;20191;-51
2021/03/06 07:52:52;;;;;;;5.78;5.28;;;3.60;90.10;;;;;;5114470;27;20232;-52
2021/03/06 07:55:18;;;;;;;5.35;4.85;;;3.10;88.90;;;;;;5137793;27;20219;-52
2021/03/06 07:58:19;;;;;;;6.18;4.60;;;3.10;89.50;;;;;;5108023;27;20221;-50
2021/03/06 08:00:54;;;;;;;5.55;4.78;;;3.20;88.90;;;;;;5108128;27;20232;-50
2021/03/06 08:03:30;;;;;;;5.85;4.97;;;3.30;89.10;;;;;;5107470;27;20211;-51
2021/03/06 08:06:18;;;;;;;6.40;5.65;;;3.20;89.90;;;;;;5105251;27;20179;-51
2021/03/06 08:08:46;;;;;;;6.30;4.60;;;3.40;89.60;;;;;;5108926;27;20278;-51
2021/03/06 08:11:20;;;;;;;11.65;8.10;;;3.00;88.40;;;;;;5107246;27;20269;-53
2021/03/06 08:13:52;;;;;;;11.57;8.18;;;2.90;89.60;;;;;;5108875;27;20184;-53
2021/03/06 08:18:54;;;;;;;6.20;5.63;;;3.10;90.30;;;;;;5125892;27;20555;-50
2021/03/06 08:21:29;;;;;;;5.90;5.25;;;3.20;90.10;;;;;;5109826;27;20187;-51
2021/03/06 08:24:15;;;;;;;6.63;5.22;;;2.90;90.30;;;;;;5106032;27;20543;-52
2021/03/06 08:26:53;;;;;;;4.93;4.20;;;3.00;91.00;;;;;;5105670;27;20207;-50
2021/03/06 08:29:28;;;;;;;5.55;4.90;;;2.90;90.20;;;;;;5122574;27;20190;-52
2021/03/06 08:32:01;;;;;;;5.57;4.57;;;3.00;87.80;;;;;;5107244;27;20552;-52
2021/03/06 08:34:37;;;;;;;6.90;5.65;;;2.80;89.30;;;;;;5109021;27;20184;-51
2021/03/06 08:37:12;;;;;;;6.47;4.78;;;3.20;89.30;;;;;;5111742;27;20711;-52
2021/03/06 08:39:48;;;;;;;7.07;4.75;;;3.40;88.90;;;;;;5112307;27;20667;-52
2021/03/06 08:42:19;;;;;;;4.70;4.25;;;3.70;88.40;;;;;;5119212;27;20239;-52
2021/03/06 08:44:46;;;;;;;9.32;4.43;;;3.90;85.80;;;;;;5129202;27;20222;-52
2021/03/06 08:47:12;;;;;;;9.18;4.90;;;3.90;85.40;;;;;;5106760;27;20304;-52
2021/03/06 08:49:38;;;;;;;5.55;4.90;;;3.90;86.80;;;;;;5108001;27;20663;-52
2021/03/06 08:52:04;;;;;;;6.18;5.38;;;3.80;85.80;;;;;;5104177;27;20585;-52
2021/03/06 08:54:40;;;;;;;5.07;4.30;;;4.10;86.10;;;;;;5104283;27;20180;-51
2021/03/06 08:57:34;;;;;;;6.65;5.20;;;4.50;83.80;;;;;;5109110;27;20215;-52
2021/03/06 09:00:04;;;;;;;6.57;5.15;;;4.70;81.90;;;;;;5107817;27;20185;-52
2021/03/06 09:02:32;;;;;;;4.95;4.45;;;5.20;82.20;;;;;;5115377;27;20650;-52
2021/03/06 09:05:06;;;;;;;5.30;4.80;;;5.50;80.90;;;;;;5111323;27;20205;-52
2021/03/06 09:07:32;;;;;;;5.03;4.53;;;5.50;79.00;;;;;;5112185;27;20539;-52
2021/03/06 09:10:23;;;;;;;6.07;5.32;;;5.90;78.20;;;;;;5110728;27;20177;-51
2021/03/06 09:12:52;;;;;;;5.05;4.63;;;5.80;77.80;;;;;;5111479;27;20208;-52
2021/03/06 09:15:36;;;;;;;5.80;4.50;;;6.50;74.10;;;;;;5112507;27;20204;-51
2021/03/06 09:18:04;;;;;;;5.18;4.60;;;6.20;72.80;;;;;;5110869;27;20623;-51
2021/03/06 09:20:35;;;;;;;5.53;5.00;;;6.40;72.90;;;;;;5111078;27;20187;-51
2021/03/06 09:23:01;;;;;;;4.75;4.35;;;6.40;73.40;;;;;;5106749;27;20183;-51
2021/03/06 09:25:35;;;;;;;4.70;4.30;;;7.70;67.60;;;;;;5110901;27;20556;-50
2021/03/06 09:28:03;;;;;;;5.18;4.68;;;8.80;64.20;;;;;;5110066;27;20210;-52
2021/03/06 09:30:30;;;;;;;5.47;4.95;;;9.80;60.10;;;;;;5106549;27;20703;-53
2021/03/06 09:32:56;;;;;;;4.97;4.00;;;9.20;59.30;;;;;;5102970;27;20200;-51
2021/03/06 09:35:22;;;;;;;4.60;4.00;;;9.60;56.30;;;;;;5110693;27;20194;-51
2021/03/06 09:38:10;;;;;;;5.45;4.47;;;9.70;55.90;;;;;;5106531;27;20215;-51
2021/03/06 09:40:41;;;;;;;4.65;4.00;;;10.30;54.10;;;;;;5106515;27;20177;-52
2021/03/06 09:43:09;;;;;;;4.22;3.85;;;10.20;51.50;;;;;;5106058;27;20172;-51
2021/03/06 09:45:35;;;;;;;4.55;4.15;;;9.80;52.00;;;;;;5101972;27;20185;-51
2021/03/06 09:48:11;;;;;;;4.57;4.18;;;9.60;52.50;;;;;;5100555;27;20214;-51
2021/03/06 09:50:37;;;;;;;4.53;4.13;;;9.70;53.00;;;;;;5105143;27;20205;-51
2021/03/06 09:53:29;;;;;;;4.35;3.92;;;9.80;53.00;;;;;;5111702;27;20637;-51
2021/03/06 09:56:08;;;;;;;5.30;4.40;;;9.80;53.10;;;;;;5109136;27;20542;-51
2021/03/06 09:58:33;;;;;;;4.43;3.72;;;10.00;52.00;;;;;;5108803;27;20183;-51
2021/03/06 10:01:17;;;;;;;4.73;3.90;;;9.70;52.70;;;;;;5110311;27;20185;-51
2021/03/06 10:03:44;;;;;;;4.05;3.55;;;10.10;52.10;;;;;;5110677;27;20610;-51
2021/03/06 10:06:12;;;;;;;4.85;4.25;;;10.40;49.60;;;;;;5111106;27;20196;-51
2021/03/06 10:08:44;;;;;;;4.60;4.15;;;10.50;49.90;;;;;;5125790;27;20271;-52
2021/03/06 10:11:12;;;;;;;4.35;3.95;;;10.00;49.70;;;;;;5108537;27;20209;-51
2021/03/06 10:13:38;;;;;;;4.60;4.20;;;9.60;50.80;;;;;;5109665;27;20193;-51
2021/03/06 10:16:04;;;;;;;4.73;4.17;;;9.10;51.90;;;;;;5110024;27;20595;-51
2021/03/06 10:18:36;;;;;;;4.90;4.35;;;9.20;51.70;;;;;;5109406;27;20182;-51
2021/03/06 10:21:28;;;;;;;4.53;4.13;;;9.70;51.30;;;;;;5107990;27;20934;-52
2021/03/06 10:24:02;;;;;;;4.05;3.75;;;10.00;50.10;;;;;;5101569;27;20218;-51
2021/03/06 10:26:28;;;;;;;6.47;4.20;;;10.50;49.40;;;;;;5110108;27;20752;-51
2021/03/06 10:29:17;;;;;;;4.80;4.30;;;10.20;48.20;;;;;;5127647;27;20294;-51
2021/03/06 10:31:43;;;;;;;3.72;3.42;;;10.20;48.90;;;;;;5107897;27;20465;-51
2021/03/06 10:34:23;;;;;;;5.97;4.10;;;10.10;49.10;;;;;;5110725;28;20209;-51
2021/03/06 10:37:17;;;;;;;4.70;4.30;;;9.80;51.70;;;;;;5107712;28;20471;-51
2021/03/06 10:39:56;;;;;;;4.40;3.92;;;9.80;51.30;;;;;;5127078;27;20690;-51
2021/03/06 10:42:52;;;;;;;5.50;4.30;;;9.60;50.90;;;;;;5109194;28;20582;-51
2021/03/06 10:45:30;;;;;;;4.50;4.18;;;9.60;50.50;;;;;;5088315;28;20555;-50
2021/03/06 10:47:59;;;;;;;4.07;3.78;;;9.60;51.00;;;;;;5123570;28;20312;-50
2021/03/06 10:50:52;;;;;;;5.43;4.63;;;9.30;51.20;;;;;;5110022;28;20275;-51
2021/03/06 10:53:20;;;;;;;5.13;4.63;;;9.60;52.70;;;;;;5109544;28;20195;-50
2021/03/06 10:55:47;;;;;;;5.00;4.47;;;9.70;53.10;;;;;;5109920;28;20239;-51
2021/03/06 10:58:13;;;;;;;4.53;4.07;;;9.80;53.50;;;;;;5122648;28;20216;-51
2021/03/06 11:00:41;;;;;;;4.05;3.75;;;9.80;53.50;;;;;;5109319;28;20177;-51
2021/03/06 11:03:10;;;;;;;4.90;4.43;;;10.00;52.00;;;;;;5108286;28;20192;-51
2021/03/06 11:05:37;;;;;;;5.05;4.65;;;10.30;50.90;;;;;;5129932;28;20290;-50
2021/03/06 11:08:17;;;;;;;4.32;4.03;;;10.40;50.30;;;;;;5130637;28;20252;-51
2021/03/06 11:10:46;;;;;;;4.85;4.10;;;10.80;50.80;;;;;;5111710;28;20184;-51
2021/03/06 11:13:12;;;;;;;6.18;4.47;;;11.10;50.20;;;;;;5105561;28;20278;-51
2021/03/06 11:15:49;;;;;;;4.40;4.00;;;12.10;48.60;;;;;;5111409;28;20659;-50
2021/03/06 11:18:14;;;;;;;4.88;4.47;;;12.70;47.90;;;;;;5111428;28;20697;-51
2021/03/06 11:20:41;;;;;;;4.20;3.80;;;13.00;46.10;;;;;;5110828;28;20183;-50
2021/03/06 11:23:07;;;;;;;5.35;4.85;;;12.70;46.00;;;;;;5104601;28;20179;-46
2021/03/06 11:25:33;;;;;;;4.05;3.65;;;12.20;46.60;;;;;;5108304;28;20183;-50
2021/03/06 11:28:05;;;;;;;6.28;5.15;;;12.00;47.90;;;;;;5108397;28;20207;-51
2021/03/06 11:30:43;;;;;;;4.63;4.22;;;11.60;48.50;;;;;;5113563;28;20276;-50
2021/03/06 11:33:10;;;;;;;4.40;4.03;;;11.50;47.60;;;;;;5110099;28;20185;-51
2021/03/06 11:35:37;;;;;;;4.10;3.70;;;11.00;48.60;;;;;;5113498;28;20181;-50
2021/03/06 11:38:05;;;;;;;4.70;4.30;;;11.50;47.40;;;;;;5104587;28;20579;-51
2021/03/06 11:40:32;;;;;;;4.03;3.72;;;11.40;46.10;;;;;;5121416;28;20192;-52
2021/03/06 11:42:59;;;;;;;5.25;4.82;;;11.40;45.80;;;;;;5103824;28;20181;-51
2021/03/06 11:45:25;;;;;;;4.68;4.15;;;11.40;46.10;;;;;;5108610;28;20181;-50
2021/03/06 11:47:52;;;;;;;4.18;3.78;;;10.70;46.10;;;;;;5112501;27;20224;-51
2021/03/06 11:50:20;;;;;;;4.68;4.28;;;10.30;46.90;;;;;;5131481;27;20263;-51
2021/03/06 11:52:48;;;;;;;4.80;4.40;;;10.30;48.00;;;;;;5115487;27;20508;-51
2021/03/06 11:55:14;;;;;;;4.72;4.15;;;10.40;48.40;;;;;;5114043;27;20677;-51
2021/03/06 11:57:42;;;;;;;4.55;4.18;;;10.30;47.10;;;;;;5109682;27;20245;-52
2021/03/06 12:00:14;;;;;;;3.47;3.17;;;9.90;48.30;;;;;;5114266;27;20276;-52
2021/03/06 12:02:40;;;;;;;4.60;3.95;;;10.00;48.50;;;;;;5110617;27;20197;-52
2021/03/06 12:05:09;;;;;;;4.70;4.30;;;9.50;48.50;;;;;;5101985;27;20186;-53
2021/03/06 12:07:36;;;;;;;5.50;4.18;;;9.30;48.80;;;;;;5112007;27;20227;-53
2021/03/06 12:10:03;;;;;;;4.32;3.92;;;9.40;49.00;;;;;;5100161;27;20222;-53
2021/03/06 12:12:29;;;;;;;4.20;3.80;;;9.40;48.60;;;;;;5110866;27;20417;-50
2021/03/06 12:14:54;;;;;;;6.87;4.17;;;9.40;47.90;;;;;;5112323;27;20194;-52
2021/03/06 12:17:20;;;;;;;4.33;3.93;;;10.00;47.60;;;;;;5110772;27;20193;-50
2021/03/06 12:19:46;;;;;;;4.40;4.00;;;9.80;48.30;;;;;;5106168;27;20198;-51
2021/03/06 12:22:11;;;;;;;4.00;3.70;;;9.90;47.30;;;;;;5107708;27;20512;-52
2021/03/06 12:24:37;;;;;;;4.40;3.60;;;10.40;46.00;;;;;;5109707;27;20555;-51
2021/03/06 12:27:02;;;;;;;3.80;3.50;;;10.20;45.70;;;;;;5110969;27;20248;-51
2021/03/06 12:29:28;;;;;;;4.73;3.60;;;10.20;45.90;;;;;;5112513;27;20240;-52
2021/03/06 12:31:54;;;;;;;4.13;3.73;;;9.90;46.30;;;;;;5128069;27;20194;-53
2021/03/06 12:34:20;;;;;;;3.77;3.47;;;9.80;46.80;;;;;;5113003;27;20350;-53
2021/03/06 12:36:46;;;;;;;4.40;4.00;;;9.80;47.20;;;;;;5112578;27;20309;-50
2021/03/06 12:39:12;;;;;;;5.85;5.20;;;9.80;46.60;;;;;;5109392;27;20437;-50
2021/03/06 12:41:38;;;;;;;3.90;3.60;;;9.60;47.10;;;;;;5112183;27;20194;-52
2021/03/06 12:44:04;;;;;;;3.23;2.97;;;9.70;47.20;;;;;;5135934;27;20262;-52
2021/03/06 12:46:30;;;;;;;4.00;3.60;;;9.70;46.80;;;;;;5110800;27;20439;-52
2021/03/06 12:48:57;;;;;;;3.53;3.22;;;9.70;47.20;;;;;;5111855;27;20187;-53
2021/03/06 12:51:22;;;;;;;3.60;3.30;;;9.50;46.80;;;;;;5111149;27;20283;-52
2021/03/06 12:53:48;;;;;;;3.70;3.40;;;9.60;47.00;;;;;;5111853;27;20270;-52
2021/03/06 12:56:14;;;;;;;4.03;3.10;;;9.70;46.70;;;;;;5106723;27;20651;-52
2021/03/06 12:58:39;;;;;;;3.27;3.07;;;9.70;46.20;;;;;;5097501;27;20613;-50
2021/03/06 13:01:05;;;;;;;3.70;3.40;;;9.50;46.10;;;;;;5107399;27;20179;-50
2021/03/06 13:03:32;;;;;;;3.70;3.15;;;9.80;45.60;;;;;;5110496;27;20240;-52
2021/03/06 13:05:57;;;;;;;3.72;3.20;;;9.10;45.40;;;;;;5108473;27;20714;-50
2021/03/06 13:08:23;;;;;;;3.43;3.13;;;9.60;46.10;;;;;;5111777;27;20195;-50